Terminal Aerodrome Forecast
Issued by NWS Omaha/Valley, NE

Home | Current Version | Previous Version | Graphics & Text | Print | Product List | Glossary On
Versions: 1 2 3 4 5 6 7 8 9 10 11 12 13 14 15 16 17
000
FTUS43 KOAX 060941 AAA
TAFOFK
TAF AMD
KOFK 060941Z 0610/0706 31014G21KT P6SM FEW120
     FM061600 30017G26KT P6SM SCT250
     FM062300 30012G20KT P6SM FEW250=

USA.gov is the U.S. government's official web portal to all federal, state and local government web resources and services.